Alquina, Indiana
Current Conditions -  °F | °C
As of 12:35 PM on Friday 21 Nov 2014 (Local Time) from KI67 Reporting Station
Clear Clear  
Wind Chill:   Ceiling: Unl
Heat Index:   Visibility: 10mi
Dew Point: -11°   Wind: 0mph
Humidity: 44%   Direction: NA
Pressure: 30.52"   Gusts: NA
Location:  39.645°N, 85.1744°W
Report Text: KI67 211735Z AUTO 00000KT 10SM CLR 00/M11 A3052 RMK AO1
Loading
Personal Weather Stations






























Interactive Weather Map New forecast layout! Learn more

10-Day Weather Forecast

Advertisements
Track Severe Weather on mobile